Henry Post Army Air Field (Fort Sill) Fort Sill US
ICAO: KFSI
IATA: FSI
Category: Medium
Scheduled Services: No

Elevation: 1189 ft
TransAlt. 18000 ft.

Airport Communications:
FORT SILL APP/DEP:118.6
ATIS:135.425
CLNC DEL:121.7
POST GND:121.7
DUNCAN SCTR:118.6
PMSV METRO:37.52
PTD:123.05
POST TWR:124.95

KFSI Zoom In..

Runways:

(A) RW 17 length 5001 ft width 150 ft
---- / hdg 173

(B) RW 35 length 5001 ft width 150 ft
---- / hdg 353

Location; KFSI
Day. 03 / Time. 20.57 Zulu
* Altimeter: 30.04
* Temperature: 31° c. 87.8°f.
* Wind from: 030° Speed 06 kn.
Dewpoint: 18° c.
Visibility: 10 Statute Miles.
Clouds: Few 16000 ft.
Clouds: Few 21000 ft.

KFSI 032057Z 03006KT 10SM FEW160 FEW210 31/18 A3004 RMK AO2A SLP163 57018

Going to: --> -->


Wind From 030°
Speed 06 kn.

 
 
jpsmedia worldairports.se 2020   terms of use